Time;durP1;ratioP1;P1;durP2;ratioP2;P2;SDS_P1;SDS_P2;PMS_P1;PMS_P2;Temp;Humidity;BMP_temperature;BMP_pressure;BME280_temperature;BME280_humidity;BME280_pressure;Samples;Min_cycle;Max_cycle;Signal;HPM_P1;HPM_P2
2022/11/08 00:01:31;;;;;;;;;4.75;3.00;;;;;13.20;73.62;100638.28;4977849;28;45382;-77
2022/11/08 00:03:58;;;;;;;;;5.25;5.25;;;;;13.14;73.21;100639.38;4976265;28;46637;-76
2022/11/08 00:14:35;;;;;;;;;5.75;4.25;;;;;13.07;73.48;100620.47;4977126;28;45729;-77
2022/11/08 00:17:01;;;;;;;;;8.25;5.75;;;;;13.05;73.35;100611.84;4976013;28;72279;-76
2022/11/08 00:19:26;;;;;;;;;5.75;5.25;;;;;12.95;73.32;100595.72;4976160;28;64725;-77
2022/11/08 00:21:51;;;;;;;;;6.00;6.00;;;;;13.04;73.12;100602.34;4976289;28;70580;-77
2022/11/08 00:24:16;;;;;;;;;7.50;6.50;;;;;13.03;73.12;100595.41;4975909;28;69736;-77
2022/11/08 00:26:42;;;;;;;;;7.25;3.25;;;;;13.06;73.04;100591.81;4975999;28;69377;-77
2022/11/08 00:29:07;;;;;;;;;7.00;4.00;;;;;13.06;73.37;100584.81;4975619;28;69344;-77
2022/11/08 00:31:32;;;;;;;;;4.75;4.00;;;;;13.08;73.25;100582.16;4975922;28;70612;-76
2022/11/08 00:33:58;;;;;;;;;7.00;4.50;;;;;13.07;73.06;100576.06;4975766;28;75340;-77
2022/11/08 00:36:23;;;;;;;;;3.50;3.50;;;;;13.09;72.87;100570.78;4975661;28;68268;-77
2022/11/08 00:38:48;;;;;;;;;14.00;7.00;;;;;13.05;73.04;100561.38;4976616;28;48838;-76
2022/11/08 00:41:14;;;;;;;;;8.50;7.25;;;;;13.09;72.52;100555.09;4975812;28;69965;-77
2022/11/08 00:43:39;;;;;;;;;5.75;3.75;;;;;13.10;72.73;100556.81;4975435;28;74122;-77
2022/11/08 00:46:05;;;;;;;;;6.25;4.00;;;;;12.97;72.40;100523.34;4976862;28;45394;-77
2022/11/08 00:48:30;;;;;;;;;6.75;3.00;;;;;13.05;72.66;100525.63;4975833;28;64889;-76
2022/11/08 00:51:00;;;;;;;;;3.75;3.75;;;;;13.04;72.72;100520.47;4976642;28;45363;-77
2022/11/08 00:53:26;;;;;;;;;6.75;3.00;;;;;13.08;72.37;100519.44;4976674;28;45475;-76
2022/11/08 00:55:58;;;;;;;;;4.25;4.00;;;;;13.03;72.10;100524.84;4975646;28;73315;-76
2022/11/08 00:58:23;;;;;;;;;5.25;4.00;;;;;13.04;71.82;100533.53;4975548;28;45563;-77
2022/11/08 01:00:48;;;;;;;;;3.75;2.75;;;;;12.96;71.89;100524.28;4975908;28;62114;-77
2022/11/08 01:03:20;;;;;;;;;4.00;2.75;;;;;12.97;71.66;100519.91;4975454;28;74079;-76
2022/11/08 01:05:50;;;;;;;;;7.00;4.75;;;;;12.98;71.33;100517.22;4976315;28;45418;-77
2022/11/08 01:08:17;;;;;;;;;6.00;4.00;;;;;12.98;71.65;100518.97;4976397;28;45380;-77
2022/11/08 01:10:45;;;;;;;;;2.75;2.75;;;;;12.95;71.43;100514.72;4976079;28;45532;-77
2022/11/08 01:13:11;;;;;;;;;6.00;3.75;;;;;12.94;71.61;100509.56;4976254;28;46706;-77
2022/11/08 01:15:39;;;;;;;;;3.25;3.25;;;;;12.94;71.59;100514.78;4975829;28;45503;-76
2022/11/08 01:18:05;;;;;;;;;3.25;3.25;;;;;12.89;71.23;100506.28;4975420;28;45473;-77
2022/11/08 01:20:31;;;;;;;;;3.00;3.00;;;;;12.87;71.35;100509.00;4976948;28;45452;-76
2022/11/08 01:22:56;;;;;;;;;2.00;2.00;;;;;12.85;71.29;100505.59;4976104;28;47994;-77
2022/11/08 01:25:22;;;;;;;;;2.75;2.75;;;;;12.81;71.14;100497.94;4974737;28;69589;-75
2022/11/08 01:27:47;;;;;;;;;3.75;3.75;;;;;12.79;70.98;100498.00;4991360;28;45482;-76
2022/11/08 01:30:12;;;;;;;;;9.00;3.50;;;;;12.77;71.09;100489.38;4975105;28;68480;-77
2022/11/08 01:32:38;;;;;;;;;3.50;3.50;;;;;12.74;70.88;100499.94;4976022;28;46330;-77
2022/11/08 01:35:03;;;;;;;;;2.75;2.25;;;;;12.74;71.01;100505.16;4975391;28;61977;-77
2022/11/08 01:37:29;;;;;;;;;6.00;3.00;;;;;12.70;71.39;100509.69;4975854;28;45352;-76
2022/11/08 01:39:54;;;;;;;;;3.00;2.75;;;;;12.69;71.39;100505.38;4974545;28;70490;-76
2022/11/08 01:42:32;;;;;;;;;3.25;3.00;;;;;12.68;71.27;100511.50;4975163;28;68779;-77
2022/11/08 01:44:59;;;;;;;;;5.50;3.00;;;;;12.66;71.05;100492.44;4975750;28;45402;-77
2022/11/08 01:47:24;;;;;;;;;5.50;4.00;;;;;12.57;70.79;100477.16;4976092;28;45384;-77
2022/11/08 01:49:53;;;;;;;;;6.25;3.00;;;;;12.63;70.90;100486.47;4958438;28;45521;-75
2022/11/08 01:52:25;;;;;;;;;2.00;2.00;;;;;12.62;71.12;100476.97;4975911;28;45332;-76
2022/11/08 01:55:13;;;;;;;;;3.25;2.00;;;;;12.59;70.80;100477.94;4975575;28;45655;-75
2022/11/08 01:57:45;;;;;;;;;3.00;2.50;;;;;12.57;70.97;100482.38;4958579;28;45507;-76
2022/11/08 02:00:14;;;;;;;;;5.75;2.00;;;;;12.54;71.11;100472.06;4975809;28;45551;-76
2022/11/08 02:02:41;;;;;;;;;4.75;3.50;;;;;12.50;70.88;100463.50;4975696;28;46361;-76
2022/11/08 02:05:23;;;;;;;;;6.00;4.00;;;;;12.50;70.68;100455.69;4975500;28;45750;-76
2022/11/08 02:07:54;;;;;;;;;3.00;3.00;;;;;12.51;70.71;100466.97;4975693;28;45362;-76
2022/11/08 02:10:22;;;;;;;;;8.00;4.00;;;;;12.52;70.94;100458.25;4975297;28;45489;-76
2022/11/08 02:12:48;;;;;;;;;2.00;2.00;;;;;12.48;70.76;100438.38;4974313;28;45435;-76
2022/11/08 02:15:14;;;;;;;;;3.00;3.00;;;;;12.51;70.84;100438.25;4973561;28;62215;-77
2022/11/08 02:17:40;;;;;;;;;4.00;3.00;;;;;12.50;70.92;100442.63;4957225;28;66062;-77
2022/11/08 02:20:06;;;;;;;;;3.25;3.00;;;;;12.49;70.32;100429.63;4974826;28;63682;-76
2022/11/08 02:22:40;;;;;;;;;3.00;3.00;;;;;12.43;70.05;100422.06;4957829;28;45409;-76
2022/11/08 02:25:05;;;;;;;;;4.00;2.50;;;;;12.43;70.70;100419.47;4973791;28;45551;-76
2022/11/08 02:27:31;;;;;;;;;2.25;2.00;;;;;12.41;70.29;100406.47;4959278;28;45471;-76
2022/11/08 02:29:56;;;;;;;;;7.25;3.25;;;;;12.37;70.24;100394.47;4977870;28;69470;-76
2022/11/08 02:32:22;;;;;;;;;6.00;3.00;;;;;12.35;70.49;100380.59;4978393;28;52817;-76
2022/11/08 02:34:56;;;;;;;;;5.50;3.00;;;;;12.34;70.31;100384.97;4961189;28;45445;-76
2022/11/08 02:37:22;;;;;;;;;7.00;3.00;;;;;12.36;70.08;100383.16;4977355;28;45448;-76
2022/11/08 02:39:47;;;;;;;;;4.50;2.00;;;;;12.37;69.94;100389.25;4960783;28;45510;-76
2022/11/08 02:42:17;;;;;;;;;0.00;0.00;;;;;12.31;69.92;100384.25;4977251;28;45477;-76
2022/11/08 02:44:43;;;;;;;;;4.00;3.00;;;;;12.30;69.98;100383.41;4978638;28;45345;-76
2022/11/08 02:47:08;;;;;;;;;3.00;2.50;;;;;12.33;69.89;100378.09;4978560;28;45422;-76
2022/11/08 02:49:33;;;;;;;;;4.00;2.00;;;;;12.34;69.60;100381.53;4978420;28;45382;-76
2022/11/08 02:51:59;;;;;;;;;2.50;2.00;;;;;12.35;69.12;100384.09;4977251;28;69950;-76
2022/11/08 02:54:24;;;;;;;;;2.50;2.00;;;;;12.35;69.61;100370.16;4978082;28;50937;-76
2022/11/08 02:56:49;;;;;;;;;3.00;1.75;;;;;12.35;69.36;100385.81;4977683;28;65233;-76
2022/11/08 02:59:15;;;;;;;;;2.00;2.00;;;;;12.32;69.01;100384.19;4978357;28;45344;-75
2022/11/08 03:01:40;;;;;;;;;2.00;2.00;;;;;12.27;69.14;100370.50;4977388;28;67750;-76
2022/11/08 03:04:05;;;;;;;;;3.00;3.00;;;;;12.27;69.17;100372.25;4977328;28;68174;-76
2022/11/08 03:06:31;;;;;;;;;3.00;2.75;;;;;12.29;69.25;100379.09;4976880;28;64044;-76
2022/11/08 03:08:56;;;;;;;;;7.75;3.00;;;;;12.30;68.91;100401.69;4977243;28;69619;-76
2022/11/08 03:11:22;;;;;;;;;3.50;3.00;;;;;12.27;68.77;100401.81;4977417;28;62128;-76
2022/11/08 03:13:47;;;;;;;;;2.00;2.00;;;;;12.26;68.90;100407.06;4977862;28;45414;-76
2022/11/08 03:16:12;;;;;;;;;2.00;2.00;;;;;12.23;68.52;100397.63;4977529;28;57277;-76
2022/11/08 03:18:38;;;;;;;;;3.00;3.00;;;;;12.30;68.52;100416.50;4978058;28;45435;-76
2022/11/08 03:21:03;;;;;;;;;2.50;2.50;;;;;12.30;68.76;100406.91;4976642;28;72561;-76
2022/11/08 03:23:29;;;;;;;;;2.75;2.00;;;;;12.32;68.38;100399.03;4977939;28;45334;-76
2022/11/08 03:25:54;;;;;;;;;2.00;2.00;;;;;12.30;68.66;100391.25;4977538;28;49128;-75
2022/11/08 03:28:20;;;;;;;;;2.50;2.00;;;;;12.30;68.08;100387.78;4977946;28;45314;-76
2022/11/08 03:30:48;;;;;;;;;4.00;2.00;;;;;12.32;68.73;100388.59;4977685;28;46491;-76
2022/11/08 03:33:13;;;;;;;;;3.25;1.00;;;;;12.32;68.59;100389.41;4960384;28;45878;-76
2022/11/08 03:35:38;;;;;;;;;3.00;3.00;;;;;12.34;68.64;100387.59;4976486;28;68505;-76
2022/11/08 03:38:04;;;;;;;;;1.25;1.00;;;;;12.34;68.37;100377.16;4976010;28;45460;-76
2022/11/08 03:40:29;;;;;;;;;0.25;0.25;;;;;12.33;68.27;100382.44;4976691;28;72663;-76
2022/11/08 03:42:56;;;;;;;;;3.00;2.00;;;;;12.31;67.88;100374.69;4976740;28;71723;-75
2022/11/08 03:45:21;;;;;;;;;4.00;3.75;;;;;12.24;68.11;100356.72;4977750;28;45418;-76
2022/11/08 03:47:46;;;;;;;;;7.00;2.00;;;;;12.31;68.10;100373.81;4976440;28;45451;-76
2022/11/08 03:50:13;;;;;;;;;2.00;2.00;;;;;12.26;67.83;100381.84;4976328;28;71770;-76
2022/11/08 03:52:40;;;;;;;;;3.00;1.50;;;;;12.26;67.68;100387.06;4977557;28;45249;-76
2022/11/08 03:55:06;;;;;;;;;2.00;2.00;;;;;12.27;67.93;100386.16;4976567;28;45288;-76
2022/11/08 03:57:32;;;;;;;;;1.75;1.00;;;;;12.30;67.95;100374.75;4977512;28;45258;-76
2022/11/08 03:59:57;;;;;;;;;2.50;2.50;;;;;12.31;68.49;100382.53;4976520;28;71065;-76
2022/11/08 04:02:23;;;;;;;;;1.75;1.75;;;;;12.31;67.79;100371.22;4976448;28;68581;-77
2022/11/08 04:04:48;;;;;;;;;1.50;1.50;;;;;12.31;67.30;100379.03;4976846;28;45338;-76
2022/11/08 04:07:13;;;;;;;;;3.00;1.00;;;;;12.28;67.34;100377.41;4976327;28;70115;-76
2022/11/08 04:09:39;;;;;;;;;2.75;2.00;;;;;12.33;66.88;100372.00;4976171;28;75539;-76
2022/11/08 04:23:00;;;;;;;;;2.25;2.00;;;;;12.49;67.03;100386.09;4977146;28;45195;-76
2022/11/08 04:25:25;;;;;;;;;2.00;2.00;;;;;12.49;66.99;100377.44;4977114;28;45401;-76
2022/11/08 04:27:50;;;;;;;;;3.00;1.25;;;;;12.48;66.25;100380.94;4975923;28;70179;-76
2022/11/08 04:30:16;;;;;;;;;1.25;1.25;;;;;12.42;66.36;100376.81;4975878;28;73178;-76
2022/11/08 04:32:41;;;;;;;;;2.00;1.00;;;;;12.47;66.05;100384.47;4976909;28;45453;-76
2022/11/08 04:35:07;;;;;;;;;2.75;1.50;;;;;12.47;65.49;100389.69;4975568;28;69567;-76
2022/11/08 04:37:32;;;;;;;;;3.25;1.75;;;;;12.52;66.68;100385.97;4975654;28;69750;-76
2022/11/08 04:39:57;;;;;;;;;3.00;1.00;;;;;12.54;66.16;100385.91;4975619;28;73805;-76
2022/11/08 04:42:22;;;;;;;;;1.00;1.00;;;;;12.55;66.21;100380.59;4975819;28;71385;-76
2022/11/08 04:44:48;;;;;;;;;2.50;2.00;;;;;12.55;65.73;100398.03;4976320;28;55508;-76
2022/11/08 04:47:13;;;;;;;;;1.75;1.00;;;;;12.54;66.11;100385.91;4975902;28;69872;-76
2022/11/08 04:49:38;;;;;;;;;1.25;1.00;;;;;12.57;66.07;100375.31;4974703;28;75967;-76
2022/11/08 04:52:04;;;;;;;;;1.00;1.00;;;;;12.58;66.64;100377.88;4975816;28;61926;-76
2022/11/08 04:54:29;;;;;;;;;1.00;0.25;;;;;12.57;66.24;100384.03;4976092;28;61823;-76
2022/11/08 04:56:54;;;;;;;;;1.00;1.00;;;;;12.56;66.31;100381.47;4975745;28;63045;-76
2022/11/08 04:59:20;;;;;;;;;1.00;1.00;;;;;12.52;65.76;100374.69;4975793;28;63644;-76
2022/11/08 05:01:45;;;;;;;;;2.50;2.50;;;;;12.53;66.34;100369.38;4975469;28;71662;-76
2022/11/08 05:04:10;;;;;;;;;1.00;1.00;;;;;12.48;66.16;100352.22;4970581;28;63763;-76
2022/11/08 05:06:35;;;;;;;;;1.25;1.25;;;;;12.50;65.94;100353.00;4975567;28;66005;-76
2022/11/08 05:09:01;;;;;;;;;1.25;1.25;;;;;12.52;65.93;100344.19;4975144;28;75588;-76
2022/11/08 05:11:27;;;;;;;;;3.25;1.50;;;;;12.52;65.91;100345.97;4975319;28;71967;-76
2022/11/08 05:13:53;;;;;;;;;1.50;1.50;;;;;12.47;65.93;100356.59;4976460;28;45388;-76
2022/11/08 05:16:21;;;;;;;;;1.50;1.50;;;;;12.50;65.54;100374.75;4975388;28;69471;-76
2022/11/08 05:18:47;;;;;;;;;2.00;2.00;;;;;12.53;65.89;100366.78;4975858;28;45309;-76
2022/11/08 05:24:00;;;;;;;;;1.00;1.00;;;;;12.54;65.65;100371.09;4975414;28;45442;-76
2022/11/08 05:26:25;;;;;;;;;2.25;1.25;;;;;12.55;65.63;100364.94;4976080;28;45494;-76
2022/11/08 05:28:50;;;;;;;;;2.00;1.50;;;;;12.53;65.12;100364.16;4958667;28;45581;-76
2022/11/08 05:31:16;;;;;;;;;1.50;1.50;;;;;12.58;65.44;100372.66;4975110;28;71091;-77
2022/11/08 05:33:42;;;;;;;;;3.50;2.00;;;;;12.57;64.90;100384.03;4958464;28;45381;-77
2022/11/08 05:36:09;;;;;;;;;2.00;2.00;;;;;12.56;65.21;100386.69;4958685;28;45649;-76
2022/11/08 05:38:35;;;;;;;;;1.00;1.00;;;;;12.56;65.20;100382.31;4975550;28;46296;-76
2022/11/08 05:41:03;;;;;;;;;2.00;2.00;;;;;12.57;65.07;100375.31;4974752;28;45534;-76
2022/11/08 05:43:29;;;;;;;;;2.50;2.50;;;;;12.56;65.16;100377.09;4976057;28;45403;-75
2022/11/08 05:45:54;;;;;;;;;1.00;1.00;;;;;12.59;65.19;100382.19;4958493;28;45413;-76
2022/11/08 05:48:20;;;;;;;;;1.00;1.00;;;;;12.59;65.51;100371.75;4958176;28;46107;-76
2022/11/08 05:50:45;;;;;;;;;1.25;1.00;;;;;12.61;65.56;100387.34;4974937;28;69771;-76
2022/11/08 05:53:10;;;;;;;;;1.25;1.00;;;;;12.61;66.01;100368.19;4975237;28;64852;-76
2022/11/08 05:55:36;;;;;;;;;2.00;1.75;;;;;12.59;65.14;100358.69;4974669;28;45478;-77
2022/11/08 05:58:01;;;;;;;;;1.00;1.00;;;;;12.56;65.38;100363.19;4974895;28;69798;-76
2022/11/08 06:00:26;;;;;;;;;3.00;1.00;;;;;12.55;64.92;100364.94;4975295;28;47356;-75
2022/11/08 06:02:52;;;;;;;;;1.00;1.00;;;;;12.53;64.90;100369.38;4978154;28;62167;-76
2022/11/08 06:05:17;;;;;;;;;3.00;2.00;;;;;12.53;65.47;100361.53;4978946;28;45560;-76
2022/11/08 06:07:42;;;;;;;;;1.00;1.00;;;;;12.52;65.14;100359.03;4977979;28;74843;-76
2022/11/08 06:10:08;;;;;;;;;5.50;1.25;;;;;12.53;65.58;100365.94;4978103;28;67811;-76
2022/11/08 06:12:33;;;;;;;;;1.00;1.00;;;;;12.51;65.03;100354.72;4979125;28;45210;-76
2022/11/08 06:14:59;;;;;;;;;4.50;2.00;;;;;12.53;65.01;100372.00;4978487;28;46229;-76
2022/11/08 06:17:24;;;;;;;;;4.00;1.00;;;;;12.53;65.07;100374.59;4977916;28;70815;-76
2022/11/08 06:19:49;;;;;;;;;2.25;1.00;;;;;12.53;65.45;100366.78;4978249;28;65059;-76
2022/11/08 06:22:15;;;;;;;;;2.25;2.00;;;;;12.53;65.14;100365.94;4978195;28;62761;-76
2022/11/08 06:24:40;;;;;;;;;3.00;2.00;;;;;12.52;65.33;100365.09;4978530;28;50382;-76
2022/11/08 06:27:06;;;;;;;;;3.00;1.00;;;;;12.55;65.27;100370.16;4977552;28;75407;-76
2022/11/08 06:29:31;;;;;;;;;2.75;1.25;;;;;12.52;65.47;100352.03;4978240;28;45295;-75
2022/11/08 06:31:57;;;;;;;;;3.00;1.00;;;;;12.52;65.75;100364.25;4978916;28;45249;-75
2022/11/08 06:34:23;;;;;;;;;1.50;1.00;;;;;12.53;65.85;100361.53;4961422;28;45493;-76
2022/11/08 06:36:48;;;;;;;;;1.00;1.00;;;;;12.48;65.39;100366.13;4978423;28;45563;-76
2022/11/08 06:39:14;;;;;;;;;1.00;1.00;;;;;12.50;65.14;100377.38;4977477;28;71760;-76
2022/11/08 06:41:39;;;;;;;;;2.00;1.75;;;;;12.48;65.52;100376.59;4978628;28;45548;-76
2022/11/08 06:44:04;;;;;;;;;2.25;1.75;;;;;12.52;65.55;100378.13;4977286;28;68280;-77
2022/11/08 06:46:30;;;;;;;;;1.75;1.75;;;;;12.52;65.36;100414.69;4978346;28;46057;-76
2022/11/08 06:48:55;;;;;;;;;2.50;2.00;;;;;12.52;65.04;100406.88;4977431;28;72541;-76
2022/11/08 06:51:20;;;;;;;;;2.25;1.75;;;;;12.53;65.85;100394.66;4978220;28;53348;-76
2022/11/08 06:53:46;;;;;;;;;4.00;1.00;;;;;12.52;65.83;100393.81;4977617;28;70192;-76
2022/11/08 06:56:11;;;;;;;;;1.75;1.00;;;;;12.49;65.62;100375.66;4978349;28;45506;-76
2022/11/08 06:58:37;;;;;;;;;2.00;2.00;;;;;12.52;65.85;100406.88;4978010;28;45419;-76
2022/11/08 07:01:07;;;;;;;;;2.00;1.00;;;;;12.53;65.54;100400.72;4978481;28;45497;-76
2022/11/08 07:03:33;;;;;;;;;1.00;1.00;;;;;12.51;65.83;100401.69;4976917;28;45575;-76
2022/11/08 07:06:02;;;;;;;;;1.00;1.00;;;;;12.51;66.10;100397.31;4978109;28;45378;-76
2022/11/08 07:08:28;;;;;;;;;1.00;1.00;;;;;12.48;65.99;100404.44;4978078;28;45677;-76
2022/11/08 07:10:53;;;;;;;;;3.00;1.00;;;;;12.52;65.56;100403.41;4978297;28;45393;-76
2022/11/08 07:13:19;;;;;;;;;3.25;1.25;;;;;12.48;65.58;100405.31;4976191;28;68952;-76
2022/11/08 07:15:46;;;;;;;;;1.25;1.25;;;;;12.42;65.78;100378.59;4977879;28;45886;-76
2022/11/08 07:18:13;;;;;;;;;2.50;1.75;;;;;12.51;65.67;100407.75;4977940;28;45203;-76
2022/11/08 07:20:39;;;;;;;;;2.25;2.25;;;;;12.58;65.65;100408.38;4978168;28;45413;-76
2022/11/08 07:23:05;;;;;;;;;1.00;1.00;;;;;12.58;65.65;100424.03;4960518;28;45711;-76
2022/11/08 07:25:31;;;;;;;;;2.75;2.00;;;;;12.59;65.75;100410.03;4960334;28;45536;-76
2022/11/08 07:27:58;;;;;;;;;2.50;2.00;;;;;12.61;65.57;100407.38;4977253;28;45429;-76
2022/11/08 07:30:24;;;;;;;;;3.25;1.00;;;;;12.65;65.66;100424.59;4974730;28;45686;-77
2022/11/08 07:32:49;;;;;;;;;3.00;2.00;;;;;12.63;65.90;100409.03;4976428;28;45489;-75
2022/11/08 07:35:15;;;;;;;;;3.00;2.25;;;;;12.69;65.41;100427.03;4980453;28;45946;-75
2022/11/08 07:37:40;;;;;;;;;2.75;2.00;;;;;12.76;65.96;100423.25;4976664;28;45421;-76
2022/11/08 07:40:06;;;;;;;;;2.25;2.00;;;;;12.81;65.71;100423.03;4977347;28;45424;-77
2022/11/08 07:42:35;;;;;;;;;2.50;1.50;;;;;12.88;65.46;100436.69;4977123;28;45458;-76
2022/11/08 07:45:00;;;;;;;;;3.00;3.00;;;;;12.90;65.43;100412.19;4960086;28;46460;-77
2022/11/08 07:47:25;;;;;;;;;1.00;1.00;;;;;12.97;64.82;100425.84;4975945;28;74300;-77
2022/11/08 07:49:51;;;;;;;;;2.75;2.00;;;;;13.00;65.47;100412.66;4976707;28;68101;-76
2022/11/08 07:52:16;;;;;;;;;2.00;2.00;;;;;13.04;64.96;100419.44;4976298;28;65411;-76
2022/11/08 07:54:41;;;;;;;;;1.50;1.50;;;;;13.05;64.87;100417.66;4975985;28;71129;-76
2022/11/08 07:57:07;;;;;;;;;2.00;2.00;;;;;13.13;64.86;100426.00;4977001;28;45405;-78
2022/11/08 07:59:32;;;;;;;;;1.00;1.00;;;;;13.16;65.11;100405.81;4976515;28;60324;-77
2022/11/08 08:01:57;;;;;;;;;2.50;1.75;;;;;13.20;64.92;100408.28;4975399;28;68434;-77
2022/11/08 08:04:23;;;;;;;;;2.00;2.00;;;;;13.22;64.92;100403.84;4975691;28;76864;-76
2022/11/08 08:06:48;;;;;;;;;3.25;2.00;;;;;13.22;65.28;100399.44;4976202;28;72048;-77
2022/11/08 08:09:13;;;;;;;;;3.25;1.00;;;;;13.26;64.92;100384.47;4977201;28;45518;-77
2022/11/08 08:11:38;;;;;;;;;2.50;1.00;;;;;13.30;64.50;100392.16;4975584;28;68188;-76
2022/11/08 08:14:04;;;;;;;;;3.25;1.50;;;;;13.39;64.67;100385.66;4976186;28;59057;-77
2022/11/08 08:16:29;;;;;;;;;3.50;1.00;;;;;13.50;65.08;100383.41;4975606;28;70597;-77
2022/11/08 08:18:54;;;;;;;;;3.75;2.00;;;;;13.63;64.51;100375.81;4977135;28;45297;-76
2022/11/08 08:21:20;;;;;;;;;2.00;2.00;;;;;13.75;64.38;100390.06;4976427;28;64752;-76
2022/11/08 08:23:45;;;;;;;;;3.25;2.75;;;;;13.82;64.45;100383.63;4975196;28;74397;-76
2022/11/08 08:26:10;;;;;;;;;2.00;2.00;;;;;13.83;63.86;100385.31;4973521;28;70598;-75
2022/11/08 08:28:36;;;;;;;;;1.50;1.00;;;;;13.88;63.28;100396.41;4978331;28;69996;-75
2022/11/08 08:31:03;;;;;;;;;3.00;2.00;;;;;13.97;63.93;100408.22;4959469;28;45888;-75
2022/11/08 08:33:29;;;;;;;;;3.50;2.00;;;;;14.08;63.80;100421.63;4964895;28;45609;-75
2022/11/08 08:35:55;;;;;;;;;1.00;1.00;;;;;14.18;63.26;100421.19;4974618;28;62180;-76
2022/11/08 08:38:20;;;;;;;;;4.00;1.75;;;;;14.27;63.44;100423.34;4975286;28;45870;-76
2022/11/08 08:40:46;;;;;;;;;1.00;1.00;;;;;14.43;64.02;100423.41;4964532;28;45362;-76
2022/11/08 08:43:11;;;;;;;;;2.00;2.00;;;;;14.53;63.06;100433.34;4968467;28;45446;-76
2022/11/08 08:45:37;;;;;;;;;7.25;3.50;;;;;14.67;63.37;100447.56;4937395;28;71908;-76
2022/11/08 08:48:02;;;;;;;;;3.50;2.25;;;;;14.75;62.99;100429.69;4955774;28;45923;-76
2022/11/08 08:50:29;;;;;;;;;3.00;2.00;;;;;14.82;62.47;100422.34;4955781;28;45480;-76
2022/11/08 08:53:02;;;;;;;;;2.00;2.00;;;;;14.88;62.40;100417.66;4938222;28;47125;-76
2022/11/08 08:55:27;;;;;;;;;2.25;2.25;;;;;14.98;62.68;100419.78;4937822;28;45746;-76
2022/11/08 08:57:53;;;;;;;;;2.00;1.25;;;;;15.13;62.77;100410.28;4955647;28;45739;-76
2022/11/08 09:00:19;;;;;;;;;1.00;1.00;;;;;15.32;62.08;100405.72;4954876;28;65891;-76
2022/11/08 09:02:44;;;;;;;;;1.00;1.00;;;;;15.46;62.46;100405.81;4955851;28;46163;-76
2022/11/08 09:05:11;;;;;;;;;2.50;1.25;;;;;15.58;61.73;100416.56;4970191;28;45372;-76
2022/11/08 09:07:37;;;;;;;;;3.75;2.00;;;;;15.73;62.34;100415.75;4975045;28;45383;-76
2022/11/08 09:10:03;;;;;;;;;3.50;1.25;;;;;15.90;61.46;100408.72;4974508;28;45369;-76
2022/11/08 09:12:29;;;;;;;;;1.00;1.00;;;;;15.94;61.40;100413.72;4957307;28;46077;-76
2022/11/08 09:14:55;;;;;;;;;3.00;1.00;;;;;15.98;60.76;100401.28;4974635;28;46530;-76
2022/11/08 09:17:20;;;;;;;;;5.00;2.00;;;;;16.00;60.79;100413.38;4974927;28;45458;-75
2022/11/08 09:19:46;;;;;;;;;2.50;2.00;;;;;16.02;60.87;100413.28;4952141;28;45623;-76
2022/11/08 09:22:11;;;;;;;;;2.00;2.00;;;;;15.97;60.93;100420.56;4968082;28;69694;-75
2022/11/08 09:24:37;;;;;;;;;2.00;1.25;;;;;15.94;60.81;100433.88;4974129;28;45443;-76
2022/11/08 09:27:02;;;;;;;;;3.00;1.75;;;;;15.87;60.76;100430.75;4978890;28;45553;-76
2022/11/08 09:29:29;;;;;;;;;0.00;0.00;;;;;15.86;60.57;100440.41;4988880;28;45449;-76
2022/11/08 09:31:55;;;;;;;;;2.00;2.00;;;;;15.81;60.83;100449.47;4968375;28;46041;-76
2022/11/08 09:34:20;;;;;;;;;2.00;1.00;;;;;15.75;61.21;100442.78;4974344;28;61052;-76
2022/11/08 09:36:45;;;;;;;;;2.00;1.00;;;;;15.76;61.57;100441.84;4975987;28;65559;-76
2022/11/08 09:39:11;;;;;;;;;3.00;3.00;;;;;15.81;61.32;100438.97;4959883;28;64631;-75
2022/11/08 09:41:58;;;;;;;;;2.50;1.00;;;;;15.93;61.60;100430.38;4984907;28;45423;-75
2022/11/08 09:44:45;;;;;;;;;4.25;2.50;;;;;15.95;61.20;100407.53;4988462;28;45622;-76
2022/11/08 09:47:19;;;;;;;;;2.00;1.00;;;;;15.97;61.02;100410.94;4972908;28;45481;-77
2022/11/08 09:50:05;;;;;;;;;1.00;1.00;;;;;16.00;61.02;100417.78;4954440;28;46133;-77
2022/11/08 09:52:32;;;;;;;;;2.25;1.00;;;;;16.02;61.02;100431.66;4991712;28;47460;-77
2022/11/08 09:55:36;;;;;;;;;2.75;1.00;;;;;16.06;61.26;100420.03;4978507;28;45348;-77
2022/11/08 09:58:20;;;;;;;;;2.00;1.75;;;;;16.13;61.23;100408.25;4973991;28;45337;-76
2022/11/08 10:00:49;;;;;;;;;2.00;2.00;;;;;16.34;61.08;100421.94;4973650;28;45534;-76
2022/11/08 10:03:16;;;;;;;;;1.00;1.00;;;;;16.57;60.52;100423.22;4992942;28;46074;-77
2022/11/08 10:05:50;;;;;;;;;3.00;2.00;;;;;16.60;60.71;100412.53;4962288;28;45778;-76
2022/11/08 10:08:27;;;;;;;;;0.75;0.75;;;;;16.75;60.51;100421.31;4978872;28;45393;-76
2022/11/08 10:11:27;;;;;;;;;4.25;1.00;;;;;16.85;59.73;100421.63;4959569;28;45390;-77
2022/11/08 10:14:05;;;;;;;;;3.00;1.00;;;;;16.94;59.92;100428.94;4974368;28;46318;-76
2022/11/08 10:16:58;;;;;;;;;3.75;2.00;;;;;16.96;59.41;100436.75;4978156;28;45629;-77
2022/11/08 10:19:45;;;;;;;;;2.25;2.25;;;;;16.95;59.02;100432.41;4976025;28;45422;-76
2022/11/08 10:22:21;;;;;;;;;2.00;2.00;;;;;17.01;60.02;100429.41;4962139;28;45481;-76
2022/11/08 10:24:53;;;;;;;;;2.75;1.25;;;;;17.23;59.29;100423.69;4979171;28;45383;-76
2022/11/08 10:27:42;;;;;;;;;1.00;1.00;;;;;17.40;58.94;100425.25;4975661;28;45386;-76
2022/11/08 10:30:16;;;;;;;;;1.00;1.00;;;;;17.56;58.65;100431.25;4949188;28;45273;-76
2022/11/08 10:32:42;;;;;;;;;2.25;2.25;;;;;17.72;58.36;100425.88;4993391;28;45548;-76
2022/11/08 10:35:10;;;;;;;;;1.50;1.50;;;;;18.02;58.42;100419.59;4979437;28;49905;-76
2022/11/08 10:37:36;;;;;;;;;3.50;2.00;;;;;18.25;57.97;100423.34;4985058;28;45360;-76
2022/11/08 10:40:14;;;;;;;;;3.00;1.00;;;;;18.38;56.74;100426.84;4987722;28;50956;-76
2022/11/08 10:42:46;;;;;;;;;1.25;1.25;;;;;18.45;56.25;100418.56;4959819;28;45528;-77
2022/11/08 10:45:12;;;;;;;;;2.25;2.00;;;;;18.62;56.59;100406.88;4966648;28;47428;-76
2022/11/08 10:47:38;;;;;;;;;3.75;2.00;;;;;18.85;56.68;100413.25;4959456;28;45453;-76
2022/11/08 10:51:02;;;;;;;;;3.00;2.00;;;;;18.95;55.71;100407.22;4958665;28;46000;-76
2022/11/08 10:53:31;;;;;;;;;2.00;1.00;;;;;19.14;55.33;100408.59;4893895;29;45560;-77
2022/11/08 10:56:03;;;;;;;;;3.00;2.25;;;;;19.38;55.38;100407.81;4881959;29;46453;-77
2022/11/08 10:58:35;;;;;;;;;3.25;2.50;;;;;19.81;55.38;100408.22;4892906;29;45784;-77
2022/11/08 11:01:17;;;;;;;;;2.00;2.00;;;;;20.56;53.13;100395.66;4893572;29;45471;-77
2022/11/08 11:03:43;;;;;;;;;2.00;2.00;;;;;20.82;52.33;100409.53;4877435;28;45347;-77
2022/11/08 11:06:31;;;;;;;;;2.50;1.00;;;;;20.60;52.22;100399.78;4889535;28;46274;-77
2022/11/08 11:09:02;;;;;;;;;3.50;2.75;;;;;20.27;52.04;100391.63;4895652;29;45542;-76
2022/11/08 11:11:30;;;;;;;;;2.00;2.00;;;;;19.96;52.97;100389.56;4896462;29;45601;-76
2022/11/08 11:14:15;;;;;;;;;3.00;1.25;;;;;19.70;53.67;100385.19;4895857;29;45612;-76
2022/11/08 11:16:54;;;;;;;;;1.75;1.00;;;;;19.55;54.10;100396.88;4897892;29;45490;-77
2022/11/08 11:19:19;;;;;;;;;3.75;2.00;;;;;19.41;54.47;100392.59;4898033;29;45562;-77
2022/11/08 11:21:50;;;;;;;;;4.00;2.00;;;;;19.34;54.64;100388.72;4896785;29;69162;-77
2022/11/08 11:24:19;;;;;;;;;3.00;1.00;;;;;19.27;55.29;100385.66;4882447;29;45378;-76
2022/11/08 11:26:47;;;;;;;;;3.00;2.00;;;;;19.23;55.25;100397.38;4882018;29;46200;-77
2022/11/08 11:29:23;;;;;;;;;1.00;1.00;;;;;19.18;55.52;100381.03;4929850;28;45451;-77
2022/11/08 11:31:51;;;;;;;;;3.00;3.00;;;;;19.23;55.54;100380.72;4959945;28;45372;-76
2022/11/08 11:34:16;;;;;;;;;2.00;2.00;;;;;19.46;56.04;100390.47;4959690;28;45541;-77
2022/11/08 11:36:55;;;;;;;;;2.00;2.00;;;;;20.04;55.57;100381.91;4977348;28;46076;-77
2022/11/08 11:39:24;;;;;;;;;3.00;3.00;;;;;20.57;54.69;100398.19;4959128;28;45445;-77
2022/11/08 11:41:55;;;;;;;;;2.00;2.00;;;;;21.11;53.81;100401.16;4992201;28;45434;-77
2022/11/08 11:44:29;;;;;;;;;3.50;2.00;;;;;21.40;52.83;100402.34;4976067;28;45435;-77
2022/11/08 11:47:02;;;;;;;;;0.00;0.00;;;;;21.28;51.67;100408.59;4976872;28;45614;-76
2022/11/08 11:49:29;;;;;;;;;1.50;1.50;;;;;20.94;51.88;100394.53;4963938;28;45436;-76